Time;durP1;ratioP1;P1;durP2;ratioP2;P2;SDS_P1;SDS_P2;PMS_P1;PMS_P2;Temp;Humidity;BMP_temperature;BMP_pressure;BME280_temperature;BME280_humidity;BME280_pressure;Samples;Min_cycle;Max_cycle;Signal;HPM_P1;HPM_P2
2021/05/11 00:00:02;;;;;;;8.57;7.87;;;16.00;93.60;;;;;;10379006;28;20667;-78
2021/05/11 00:05:07;;;;;;;8.20;7.50;;;16.00;93.80;;;;;;10380383;28;20226;-78
2021/05/11 00:10:09;;;;;;;8.40;7.60;;;16.00;93.80;;;;;;10380901;28;21154;-78
2021/05/11 00:15:13;;;;;;;8.03;7.33;;;16.00;93.70;;;;;;10379981;28;20253;-77
2021/05/11 00:20:16;;;;;;;8.43;7.63;;;16.00;93.70;;;;;;10380303;28;20261;-78
2021/05/11 00:25:18;;;;;;;8.93;8.13;;;16.00;94.20;;;;;;10380891;28;20233;-77
2021/05/11 00:30:20;;;;;;;7.10;6.50;;;15.90;94.20;;;;;;10379778;28;20191;-78
2021/05/11 00:35:22;;;;;;;7.47;6.87;;;15.90;94.20;;;;;;10380733;28;20996;-77
2021/05/11 00:40:24;;;;;;;7.60;7.00;;;16.00;94.20;;;;;;10380289;28;20206;-78
2021/05/11 00:45:26;;;;;;;7.50;6.80;;;16.00;94.20;;;;;;10376145;28;20230;-78
2021/05/11 00:50:28;;;;;;;7.73;6.90;;;15.90;94.20;;;;;;10356281;28;20205;-77
2021/05/11 00:55:30;;;;;;;7.03;6.33;;;15.90;94.40;;;;;;10373673;28;20222;-78
2021/05/11 01:00:33;;;;;;;8.50;7.70;;;15.90;94.20;;;;;;10372292;28;20586;-77
2021/05/11 01:05:34;;;;;;;7.83;7.13;;;15.90;94.70;;;;;;10373844;28;20222;-77
2021/05/11 01:10:36;;;;;;;7.93;7.27;;;15.90;94.80;;;;;;10378868;28;20293;-78
2021/05/11 01:15:41;;;;;;;7.80;7.00;;;15.90;94.90;;;;;;10374393;28;20624;-78
2021/05/11 01:20:46;;;;;;;8.60;7.80;;;15.90;94.80;;;;;;10372631;28;20225;-78
2021/05/11 01:25:51;;;;;;;9.50;8.60;;;15.90;94.90;;;;;;10380151;28;20230;-78
2021/05/11 01:47:28;;;;;;;9.97;9.07;;;15.80;95.90;;;;;;10367291;28;20226;-78
2021/05/11 01:52:42;;;;;;;11.50;10.40;;;15.80;95.50;;;;;;10385235;28;20306;-78
2021/05/11 01:58:12;;;;;;;11.07;9.97;;;15.80;95.50;;;;;;10386585;28;20301;-78
2021/05/11 02:24:33;;;;;;;10.50;9.47;;;15.70;96.10;;;;;;10356824;28;20273;-77
2021/05/11 02:29:35;;;;;;;12.97;10.50;;;15.70;96.20;;;;;;10389612;28;20234;-77
2021/05/11 02:34:37;;;;;;;10.47;9.47;;;15.70;96.20;;;;;;10381352;28;20268;-77
2021/05/11 02:39:38;;;;;;;9.67;8.73;;;15.70;96.50;;;;;;10360957;28;20608;-78
2021/05/11 02:44:43;;;;;;;10.27;9.27;;;15.70;96.60;;;;;;10345575;28;20642;-78
2021/05/11 02:49:46;;;;;;;10.53;9.53;;;15.70;96.60;;;;;;10383012;28;20226;-77
2021/05/11 02:54:47;;;;;;;9.67;8.67;;;15.60;96.40;;;;;;10378433;28;20658;-77
2021/05/11 02:59:50;;;;;;;11.23;10.03;;;15.60;96.80;;;;;;10362878;28;20202;-78
2021/05/11 03:04:51;;;;;;;9.97;8.97;;;15.60;96.80;;;;;;10379381;28;20202;-78
2021/05/11 03:09:53;;;;;;;9.80;8.90;;;15.60;96.70;;;;;;10360504;28;20686;-78
2021/05/11 03:14:56;;;;;;;10.53;9.37;;;15.60;97.00;;;;;;10360897;28;20646;-77
2021/05/11 03:19:58;;;;;;;9.70;8.80;;;15.60;97.00;;;;;;10377052;28;20313;-78
2021/05/11 03:24:59;;;;;;;9.80;8.80;;;15.50;97.20;;;;;;10380309;28;20606;-78
2021/05/11 03:30:02;;;;;;;12.43;8.50;;;15.50;97.20;;;;;;10377798;28;20210;-78
2021/05/11 03:35:05;;;;;;;9.30;8.40;;;15.60;97.40;;;;;;10379018;28;20664;-77
2021/05/11 03:40:08;;;;;;;10.00;9.00;;;15.50;97.10;;;;;;10357809;28;20206;-77
2021/05/11 03:45:12;;;;;;;9.67;8.20;;;15.50;97.10;;;;;;10411522;22;20271;-79
2021/05/11 03:50:15;;;;;;;10.80;9.70;;;15.50;97.10;;;;;;10529868;28;20202;-79
2021/05/11 03:55:17;;;;;;;11.23;9.97;;;15.50;97.00;;;;;;10517811;28;20249;-79
2021/05/11 04:00:20;;;;;;;11.20;10.10;;;15.50;97.20;;;;;;10493116;28;20637;-79
2021/05/11 04:05:22;;;;;;;13.77;11.00;;;15.50;97.60;;;;;;10502564;28;20247;-79
2021/05/11 04:10:32;;;;;;;12.97;10.53;;;15.60;97.50;;;;;;10486184;28;20207;-79
2021/05/11 04:20:54;;;;;;;12.40;10.53;;;15.60;97.20;;;;;;10504318;28;20197;-79
2021/05/11 04:25:56;;;;;;;14.70;11.87;;;15.60;97.50;;;;;;10485863;28;20730;-79
2021/05/11 04:30:58;;;;;;;15.30;13.50;;;15.70;97.70;;;;;;10504048;28;20193;-80
2021/05/11 04:36:00;;;;;;;14.30;11.80;;;15.70;97.80;;;;;;10486814;28;20216;-80
2021/05/11 04:41:02;;;;;;;14.57;12.43;;;15.70;97.70;;;;;;10498040;28;20200;-80
2021/05/11 04:46:13;;;;;;;15.67;12.77;;;15.70;97.70;;;;;;10503879;28;20232;-80
2021/05/11 04:51:16;;;;;;;20.97;14.67;;;15.80;97.70;;;;;;10485014;28;20254;-80
2021/05/11 04:56:18;;;;;;;17.63;13.47;;;15.80;97.90;;;;;;10488498;28;20244;-80
2021/05/11 05:01:21;;;;;;;16.13;12.83;;;15.80;97.80;;;;;;10487073;28;20204;-80
2021/05/11 05:06:22;;;;;;;16.00;12.53;;;15.80;98.00;;;;;;10491086;28;20231;-80
2021/05/11 05:11:24;;;;;;;14.97;11.90;;;15.80;97.90;;;;;;10482984;28;20200;-80
2021/05/11 05:16:26;;;;;;;13.80;12.43;;;15.80;97.80;;;;;;10503276;28;20766;-80
2021/05/11 05:21:28;;;;;;;14.67;12.73;;;15.90;97.70;;;;;;10484639;28;20682;-80
2021/05/11 05:26:30;;;;;;;14.17;12.67;;;15.90;97.70;;;;;;10494304;28;20224;-80
2021/05/11 05:31:32;;;;;;;11.57;10.43;;;15.90;97.80;;;;;;10503116;28;20197;-79
2021/05/11 05:36:34;;;;;;;12.30;11.07;;;16.00;97.70;;;;;;10486248;28;20229;-80
2021/05/11 05:41:36;;;;;;;12.00;10.67;;;16.00;97.40;;;;;;10483193;28;20207;-80
2021/05/11 05:46:39;;;;;;;11.77;10.53;;;16.00;97.60;;;;;;10507498;28;20228;-81
2021/05/11 05:51:40;;;;;;;13.10;10.77;;;16.00;97.70;;;;;;10472556;28;20219;-81
2021/05/11 05:56:42;;;;;;;13.10;11.77;;;16.00;97.80;;;;;;10501938;28;20232;-80
2021/05/11 06:01:45;;;;;;;12.00;10.80;;;16.00;97.40;;;;;;10485713;28;20201;-79
2021/05/11 06:06:48;;;;;;;12.60;11.30;;;16.10;97.60;;;;;;10530108;28;20228;-79
2021/05/11 06:11:59;;;;;;;11.70;10.70;;;16.10;97.60;;;;;;10529658;28;20205;-79
2021/05/11 06:17:14;;;;;;;10.80;9.70;;;16.20;97.60;;;;;;10511968;28;20621;-78
2021/05/11 06:22:16;;;;;;;11.63;10.50;;;16.20;97.30;;;;;;10480058;28;20538;-80
2021/05/11 06:27:19;;;;;;;11.80;10.60;;;16.30;96.90;;;;;;10457622;28;20216;-78
2021/05/11 06:32:21;;;;;;;12.70;11.40;;;16.30;97.20;;;;;;10451785;28;20222;-81
2021/05/11 06:37:23;;;;;;;11.27;10.17;;;16.40;96.70;;;;;;10467531;28;20613;-80
2021/05/11 06:42:28;;;;;;;10.93;9.93;;;16.40;96.60;;;;;;10486109;28;20613;-81
2021/05/11 06:47:50;;;;;;;12.77;11.50;;;16.40;96.80;;;;;;10466338;28;20229;-80
2021/05/11 06:52:57;;;;;;;11.90;10.80;;;16.40;96.40;;;;;;10467866;28;20192;-81
2021/05/11 06:58:03;;;;;;;12.03;10.83;;;16.40;96.70;;;;;;10474445;28;20213;-79
2021/05/11 07:03:08;;;;;;;11.57;10.57;;;16.50;96.50;;;;;;10462774;28;20209;-80
2021/05/11 07:08:13;;;;;;;11.93;10.73;;;16.50;96.40;;;;;;10485158;28;20239;-79
2021/05/11 07:13:15;;;;;;;13.67;12.27;;;16.50;96.50;;;;;;10492372;28;20657;-78
2021/05/11 07:18:19;;;;;;;12.47;11.30;;;16.60;97.10;;;;;;10480722;28;20208;-78
2021/05/11 07:23:24;;;;;;;12.80;11.60;;;16.60;96.90;;;;;;10460334;28;20193;-80
2021/05/11 07:33:48;;;;;;;10.87;9.77;;;16.70;97.10;;;;;;10486249;28;20610;-81
2021/05/11 07:38:50;;;;;;;10.07;9.10;;;16.70;96.20;;;;;;10485047;28;20684;-80
2021/05/11 07:43:54;;;;;;;9.10;8.30;;;16.80;96.40;;;;;;10487217;28;20202;-80
2021/05/11 08:05:05;;;;;;;8.90;7.83;;;17.00;95.70;;;;;;10481364;28;20683;-81
2021/05/11 08:10:18;;;;;;;9.47;8.50;;;17.10;95.80;;;;;;10480635;28;20235;-81
2021/05/11 08:15:24;;;;;;;9.07;8.20;;;17.10;95.30;;;;;;10498821;28;20216;-81
2021/05/11 08:20:39;;;;;;;7.33;6.73;;;17.10;95.30;;;;;;10480926;28;20712;-79
2021/05/11 08:31:00;;;;;;;9.23;7.40;;;17.20;95.10;;;;;;10480376;28;20230;-80
2021/05/11 08:36:03;;;;;;;7.00;6.50;;;17.30;94.80;;;;;;10498397;28;20243;-80
2021/05/11 08:41:04;;;;;;;8.07;7.37;;;17.40;94.70;;;;;;10481456;28;20606;-79
2021/05/11 08:46:08;;;;;;;7.67;6.97;;;17.50;94.70;;;;;;10455826;28;20229;-80
2021/05/11 08:51:13;;;;;;;7.13;6.57;;;17.60;94.30;;;;;;10497983;28;20231;-80
2021/05/11 09:07:20;;;;;;;5.60;5.20;;;17.90;94.00;;;;;;10486962;28;20947;-81
2021/05/11 09:28:29;;;;;;;6.57;5.70;;;18.00;93.00;;;;;;10487191;28;20231;-81
2021/05/11 09:33:34;;;;;;;5.23;4.83;;;18.20;92.90;;;;;;10486625;28;20279;-81
2021/05/11 09:55:00;;;;;;;6.93;6.13;;;18.40;92.40;;;;;;10499912;28;20200;-77
2021/05/11 10:49:25;;;;;;;10.00;9.10;;;19.20;91.10;;;;;;10495808;28;20228;-78
2021/05/11 10:54:35;;;;;;;10.07;9.17;;;19.40;90.70;;;;;;10497711;28;20393;-78
2021/05/11 10:59:49;;;;;;;15.97;10.37;;;19.40;90.50;;;;;;10496894;28;20711;-78
2021/05/11 11:04:51;;;;;;;11.23;10.03;;;19.50;90.40;;;;;;10494939;28;20254;-78
2021/05/11 11:09:59;;;;;;;10.97;9.97;;;19.50;90.10;;;;;;10487318;28;20228;-78
2021/05/11 11:15:10;;;;;;;10.60;9.50;;;19.60;90.40;;;;;;10488182;28;20201;-78
2021/05/11 11:20:14;;;;;;;10.43;9.43;;;19.60;90.00;;;;;;10453407;28;20348;-78
2021/05/11 11:25:15;;;;;;;11.60;10.57;;;19.70;90.10;;;;;;10471865;28;20597;-78
2021/05/11 11:30:19;;;;;;;10.10;9.20;;;19.70;90.20;;;;;;10482010;28;20598;-78
2021/05/11 11:35:20;;;;;;;9.60;8.80;;;19.90;90.40;;;;;;10474486;28;20684;-78
2021/05/11 11:40:22;;;;;;;9.17;8.50;;;20.10;88.70;;;;;;10496077;28;20222;-78
2021/05/11 11:45:27;;;;;;;9.03;8.33;;;20.20;88.50;;;;;;10468270;28;20200;-78
2021/05/11 11:50:34;;;;;;;7.80;7.20;;;20.30;88.60;;;;;;10481898;28;20760;-78
2021/05/11 11:56:00;;;;;;;7.60;6.97;;;20.30;87.10;;;;;;10476390;28;20726;-79
2021/05/11 12:01:13;;;;;;;7.67;6.97;;;20.30;88.00;;;;;;10487857;28;20196;-78
2021/05/11 12:06:27;;;;;;;6.50;6.00;;;20.60;87.40;;;;;;10494300;28;20271;-78
2021/05/11 12:11:44;;;;;;;6.90;6.30;;;20.60;86.80;;;;;;10485201;28;20222;-78
2021/05/11 12:16:50;;;;;;;5.13;4.83;;;20.50;87.10;;;;;;10464819;28;20209;-78
2021/05/11 12:21:53;;;;;;;4.67;4.37;;;20.40;86.80;;;;;;10450804;28;20200;-78
2021/05/11 12:27:11;;;;;;;3.80;3.60;;;20.20;87.00;;;;;;10461722;28;20224;-79
2021/05/11 12:32:22;;;;;;;4.30;4.00;;;20.10;87.60;;;;;;10442229;28;20198;-79
2021/05/11 12:37:24;;;;;;;3.93;3.63;;;20.00;87.80;;;;;;10456666;28;20602;-78
2021/05/11 12:42:26;;;;;;;8.63;4.07;;;19.90;88.50;;;;;;10470438;28;20683;-78
2021/05/11 12:47:28;;;;;;;4.47;4.17;;;20.00;89.10;;;;;;10457641;28;20247;-79
2021/05/11 12:52:30;;;;;;;5.60;5.20;;;20.10;89.50;;;;;;10443862;28;20216;-78
2021/05/11 12:57:34;;;;;;;5.70;5.30;;;20.10;88.50;;;;;;10458489;28;20296;-78
2021/05/11 13:02:47;;;;;;;6.80;4.10;;;20.00;88.70;;;;;;10455974;28;20201;-78
2021/05/11 13:29:17;;;;;;;4.53;4.23;;;19.10;90.30;;;;;;10455166;28;20229;-78
2021/05/11 13:34:21;;;;;;;5.13;4.73;;;19.00;90.50;;;;;;10449373;28;20197;-79
2021/05/11 13:39:22;;;;;;;4.93;4.53;;;18.80;90.60;;;;;;10455494;28;20209;-79
2021/05/11 13:44:24;;;;;;;5.63;5.27;;;18.70;90.70;;;;;;10459885;28;20631;-78
2021/05/11 13:49:29;;;;;;;7.10;6.50;;;18.60;90.90;;;;;;10462891;28;20309;-78
2021/05/11 13:54:30;;;;;;;7.53;6.93;;;18.50;91.10;;;;;;10465472;28;20200;-78
2021/05/11 14:04:52;;;;;;;8.23;7.53;;;18.20;92.10;;;;;;10477971;28;20224;-78
2021/05/11 14:09:54;;;;;;;9.97;7.70;;;18.10;92.60;;;;;;10457871;28;20307;-78
2021/05/11 14:14:56;;;;;;;8.03;7.33;;;17.90;92.90;;;;;;10484376;28;20197;-78
2021/05/11 14:19:58;;;;;;;6.73;6.23;;;17.80;93.00;;;;;;10459882;28;20225;-78
2021/05/11 14:25:00;;;;;;;7.10;6.50;;;17.70;94.00;;;;;;10494418;28;20214;-78
2021/05/11 14:30:02;;;;;;;6.77;6.27;;;17.70;94.20;;;;;;10498823;28;20224;-79
2021/05/11 14:35:05;;;;;;;5.70;5.30;;;17.60;94.90;;;;;;10498279;28;20640;-78
2021/05/11 14:40:08;;;;;;;4.53;4.23;;;17.50;95.60;;;;;;10500301;28;20248;-77
2021/05/11 14:45:11;;;;;;;4.67;4.37;;;17.40;96.30;;;;;;10484190;28;20204;-77
2021/05/11 14:50:14;;;;;;;4.40;4.10;;;17.30;96.70;;;;;;10489221;28;20314;-78
2021/05/11 14:55:18;;;;;;;3.37;3.17;;;17.10;97.40;;;;;;10497954;28;20204;-77
2021/05/11 15:00:20;;;;;;;4.10;3.80;;;17.00;97.80;;;;;;10486931;28;20205;-78
2021/05/11 15:05:23;;;;;;;3.27;3.00;;;16.90;98.40;;;;;;10480756;28;20244;-78
2021/05/11 15:10:25;;;;;;;2.70;2.50;;;16.80;99.10;;;;;;10484895;28;20291;-79
2021/05/11 15:15:27;;;;;;;2.90;2.70;;;16.70;98.70;;;;;;10481410;28;20236;-78
2021/05/11 15:20:30;;;;;;;2.70;2.23;;;16.50;99.60;;;;;;10465807;28;20672;-78
2021/05/11 15:25:32;;;;;;;4.03;2.27;;;16.40;99.90;;;;;;10476179;28;20278;-78
2021/05/11 15:30:35;;;;;;;2.77;2.20;;;16.20;99.90;;;;;;10481594;28;20208;-79
2021/05/11 15:35:38;;;;;;;2.80;2.60;;;16.10;99.90;;;;;;10494384;28;20672;-77
2021/05/11 15:40:41;;;;;;;3.53;3.33;;;16.10;99.90;;;;;;10457948;28;20201;-79
2021/05/11 15:45:43;;;;;;;3.07;2.70;;;16.00;99.90;;;;;;10470058;28;20252;-78
2021/05/11 15:50:47;;;;;;;3.37;3.17;;;15.90;99.90;;;;;;10477668;22;20244;-80
2021/05/11 15:55:49;;;;;;;3.17;3.03;;;15.80;99.90;;;;;;10452141;28;20680;-80
2021/05/11 16:00:51;;;;;;;3.13;3.03;;;15.70;99.90;;;;;;10436996;28;20221;-80
2021/05/11 16:05:54;;;;;;;3.43;3.23;;;15.50;99.90;;;;;;10438126;28;20338;-79
2021/05/11 16:10:56;;;;;;;4.40;4.20;;;15.50;99.90;;;;;;10430891;28;20217;-79
2021/05/11 16:15:59;;;;;;;4.33;4.13;;;15.40;99.90;;;;;;10437754;28;20229;-79
2021/05/11 16:21:02;;;;;;;4.97;4.77;;;15.40;99.90;;;;;;10421695;28;20245;-79
2021/05/11 16:26:03;;;;;;;6.27;5.97;;;15.30;99.90;;;;;;10426611;28;20194;-79
2021/05/11 16:31:05;;;;;;;6.30;6.00;;;15.30;99.90;;;;;;10438462;28;20221;-80
2021/05/11 16:36:08;;;;;;;6.53;6.23;;;15.30;99.90;;;;;;10415523;28;20252;-79
2021/05/11 16:41:10;;;;;;;6.30;6.00;;;15.10;99.90;;;;;;10420889;28;20259;-79
2021/05/11 16:46:13;;;;;;;6.10;5.90;;;15.10;99.90;;;;;;10422004;28;20583;-80
2021/05/11 16:51:16;;;;;;;6.60;6.40;;;15.00;99.90;;;;;;10421454;28;20241;-80
2021/05/11 16:56:17;;;;;;;6.23;5.83;;;15.00;99.90;;;;;;10423724;28;20209;-79
2021/05/11 17:01:19;;;;;;;7.00;6.70;;;15.00;99.90;;;;;;10401689;28;20225;-79
2021/05/11 17:06:21;;;;;;;6.80;6.33;;;14.90;99.90;;;;;;10419445;28;20228;-80
2021/05/11 17:11:24;;;;;;;7.20;6.90;;;14.90;99.90;;;;;;10435285;28;20221;-80
2021/05/11 17:16:25;;;;;;;6.00;5.70;;;14.90;99.90;;;;;;10448747;28;20208;-80
2021/05/11 17:21:29;;;;;;;7.93;7.57;;;14.90;99.90;;;;;;10452438;28;20249;-80
2021/05/11 17:26:32;;;;;;;4.93;4.73;;;14.80;99.90;;;;;;10443439;28;20217;-80
2021/05/11 17:31:35;;;;;;;8.30;7.83;;;14.80;99.90;;;;;;10414963;28;20233;-79
2021/05/11 17:36:38;;;;;;;6.83;6.33;;;14.80;99.90;;;;;;10430008;28;20194;-80
2021/05/11 17:41:39;;;;;;;8.73;8.30;;;14.80;99.90;;;;;;10429216;28;20262;-80
2021/05/11 17:46:41;;;;;;;9.40;8.80;;;14.70;99.90;;;;;;10455297;28;20308;-79
2021/05/11 17:51:43;;;;;;;10.50;9.80;;;14.70;99.90;;;;;;10455469;28;20216;-80
2021/05/11 17:57:01;;;;;;;5.87;5.50;;;14.70;99.90;;;;;;10445115;28;20269;-80
2021/05/11 18:09:04;;;;;;;6.10;5.70;;;14.60;99.90;;;;;;10338648;28;20375;-79
2021/05/11 18:14:05;;;;;;;9.50;9.10;;;14.60;99.90;;;;;;10422287;28;20284;-79
2021/05/11 18:19:07;;;;;;;9.17;8.67;;;14.60;99.90;;;;;;10413649;28;20222;-79
2021/05/11 18:24:10;;;;;;;9.50;8.90;;;14.60;99.90;;;;;;10449172;28;20204;-81
2021/05/11 18:29:13;;;;;;;9.00;8.40;;;14.50;99.90;;;;;;10461214;28;20648;-80
2021/05/11 18:34:15;;;;;;;8.20;7.80;;;14.50;99.90;;;;;;10454838;28;20284;-80
2021/05/11 18:39:23;;;;;;;9.30;8.80;;;14.50;99.90;;;;;;10428339;28;20235;-79
2021/05/11 18:44:26;;;;;;;10.47;9.97;;;14.40;99.90;;;;;;10415877;28;20202;-80
2021/05/11 18:49:28;;;;;;;10.60;9.90;;;14.40;99.90;;;;;;10446339;28;20272;-79
2021/05/11 18:54:30;;;;;;;9.00;8.50;;;14.40;99.90;;;;;;10415989;28;20234;-79
2021/05/11 18:59:32;;;;;;;8.23;7.93;;;14.40;99.90;;;;;;10424173;28;20709;-80
2021/05/11 19:04:34;;;;;;;10.70;10.00;;;14.40;99.90;;;;;;10405290;28;20288;-80
2021/05/11 19:09:36;;;;;;;9.60;9.10;;;14.40;99.90;;;;;;10453746;28;20232;-80
2021/05/11 19:14:40;;;;;;;9.93;9.33;;;14.40;99.90;;;;;;10451970;28;20869;-81
2021/05/11 19:19:42;;;;;;;9.50;9.00;;;14.40;99.90;;;;;;10455515;28;20271;-80
2021/05/11 19:24:45;;;;;;;9.30;8.90;;;14.30;99.90;;;;;;10456393;28;20197;-80
2021/05/11 19:29:49;;;;;;;8.90;8.40;;;14.30;99.90;;;;;;10420095;28;20228;-80
2021/05/11 19:34:53;;;;;;;8.60;8.20;;;14.20;99.90;;;;;;10437679;28;20216;-80
2021/05/11 19:39:55;;;;;;;5.77;5.57;;;14.10;99.90;;;;;;10443988;28;20305;-80
2021/05/11 19:44:57;;;;;;;8.60;8.20;;;14.00;99.90;;;;;;10456167;28;20212;-79
2021/05/11 19:50:00;;;;;;;7.90;7.60;;;14.00;99.90;;;;;;10456561;28;20236;-80
2021/05/11 19:55:03;;;;;;;8.70;8.20;;;13.90;99.90;;;;;;10451414;28;20217;-80
2021/05/11 20:00:07;;;;;;;7.70;7.40;;;13.90;99.90;;;;;;10429913;28;20229;-80
2021/05/11 20:05:10;;;;;;;6.93;6.63;;;13.80;99.90;;;;;;10441557;28;20233;-80
2021/05/11 20:10:13;;;;;;;7.60;7.30;;;13.80;99.90;;;;;;10410815;28;20229;-80
2021/05/11 20:15:16;;;;;;;8.23;7.90;;;13.70;99.90;;;;;;10408194;28;20216;-80
2021/05/11 20:20:18;;;;;;;7.50;7.20;;;13.70;99.90;;;;;;10428909;28;20220;-80
2021/05/11 20:25:20;;;;;;;9.83;7.00;;;13.70;99.90;;;;;;10453905;28;20204;-81
2021/05/11 20:30:23;;;;;;;7.40;7.07;;;13.70;99.90;;;;;;10409271;28;20221;-80
2021/05/11 20:35:27;;;;;;;7.03;6.73;;;13.70;99.90;;;;;;10431698;28;20300;-81
2021/05/11 20:40:31;;;;;;;6.90;6.60;;;13.70;99.90;;;;;;10425959;28;20324;-80
2021/05/11 20:45:33;;;;;;;6.70;6.50;;;13.70;99.90;;;;;;10428851;28;20582;-80
2021/05/11 20:50:36;;;;;;;7.53;7.23;;;13.70;99.90;;;;;;10442271;28;20307;-79
2021/05/11 20:55:39;;;;;;;8.10;7.50;;;13.70;99.90;;;;;;10446755;28;20201;-79
2021/05/11 21:00:41;;;;;;;7.70;7.40;;;13.70;99.90;;;;;;10449353;28;21015;-80
2021/05/11 21:05:43;;;;;;;7.03;6.63;;;13.70;99.90;;;;;;10456762;28;20718;-80
2021/05/11 21:10:45;;;;;;;7.37;7.07;;;13.60;99.90;;;;;;10455890;28;20232;-80
2021/05/11 21:15:47;;;;;;;7.13;6.83;;;13.60;99.90;;;;;;10455913;28;20214;-79
2021/05/11 21:20:49;;;;;;;7.27;6.97;;;13.60;99.90;;;;;;10428194;28;20244;-81
2021/05/11 21:25:51;;;;;;;8.20;7.80;;;13.60;99.90;;;;;;10410071;28;20205;-80
2021/05/11 21:30:53;;;;;;;7.47;7.10;;;13.60;99.90;;;;;;10449934;28;20311;-80
2021/05/11 21:35:55;;;;;;;7.00;6.70;;;13.60;99.90;;;;;;10443273;28;20201;-81
2021/05/11 21:40:58;;;;;;;6.70;6.40;;;13.60;99.90;;;;;;10436089;28;20972;-81
2021/05/11 21:46:00;;;;;;;7.83;7.53;;;13.60;99.90;;;;;;10458166;28;20689;-81
2021/05/11 21:51:01;;;;;;;7.70;7.40;;;13.50;99.90;;;;;;10424486;28;20224;-80
2021/05/11 21:56:04;;;;;;;8.60;8.20;;;13.50;99.90;;;;;;10428989;28;20197;-79
2021/05/11 22:01:06;;;;;;;7.40;7.10;;;13.50;99.90;;;;;;10430944;28;20642;-79
2021/05/11 22:06:07;;;;;;;7.80;7.50;;;13.50;99.90;;;;;;10451101;28;20287;-79
2021/05/11 22:11:10;;;;;;;7.50;7.20;;;13.50;99.90;;;;;;10452629;28;20217;-79
2021/05/11 22:16:12;;;;;;;7.60;7.20;;;13.50;99.90;;;;;;10447460;28;20211;-79
2021/05/11 22:21:13;;;;;;;8.23;7.87;;;13.50;99.90;;;;;;10452329;28;20225;-79
2021/05/11 22:26:16;;;;;;;8.17;7.80;;;13.50;99.90;;;;;;10424631;28;20202;-81
2021/05/11 22:31:18;;;;;;;8.13;7.73;;;13.50;99.90;;;;;;10424562;28;20297;-79
2021/05/11 22:36:20;;;;;;;8.43;8.10;;;13.50;99.90;;;;;;10424018;28;20197;-79
2021/05/11 22:41:23;;;;;;;8.40;8.00;;;13.50;99.90;;;;;;10422541;28;20218;-79
2021/05/11 22:46:25;;;;;;;8.00;7.70;;;13.50;99.90;;;;;;10436087;28;20242;-79
2021/05/11 22:51:27;;;;;;;7.73;7.43;;;13.50;99.90;;;;;;10422605;28;20224;-80
2021/05/11 22:56:29;;;;;;;7.63;7.33;;;13.50;99.90;;;;;;10425955;28;20336;-79
2021/05/11 23:01:31;;;;;;;8.00;7.60;;;13.50;99.90;;;;;;10425998;28;20232;-78
2021/05/11 23:06:33;;;;;;;8.03;7.53;;;13.50;99.90;;;;;;10421147;28;20281;-79
2021/05/11 23:11:36;;;;;;;7.77;7.47;;;13.50;99.90;;;;;;10445562;28;20226;-79
2021/05/11 23:16:38;;;;;;;7.90;7.60;;;13.50;99.90;;;;;;10426676;28;20197;-79
2021/05/11 23:21:40;;;;;;;7.60;7.30;;;13.60;99.90;;;;;;10429825;28;20192;-79
2021/05/11 23:26:42;;;;;;;8.50;8.10;;;13.50;99.90;;;;;;10413983;28;20661;-78
2021/05/11 23:31:44;;;;;;;7.33;7.03;;;13.50;99.90;;;;;;10434212;28;20300;-78
2021/05/11 23:36:46;;;;;;;8.50;7.90;;;13.50;99.90;;;;;;10431382;28;20276;-79
2021/05/11 23:41:48;;;;;;;8.53;8.13;;;13.50;99.90;;;;;;10432452;28;20224;-79
2021/05/11 23:46:50;;;;;;;7.80;7.47;;;13.50;99.90;;;;;;10435436;28;20193;-79
2021/05/11 23:51:51;;;;;;;7.73;7.43;;;13.50;99.90;;;;;;10432785;28;20720;-80
2021/05/11 23:56:54;;;;;;;8.33;7.93;;;13.50;99.90;;;;;;10447116;28;20221;-79
